createdAt,value
2018-02-08T00:00:46.625Z,36.22
2018-02-08T00:03:16.893Z,36.30
2018-02-08T00:05:45.232Z,36.17
2018-02-08T00:08:13.523Z,33.70
2018-02-08T00:10:44.988Z,38.28
2018-02-08T00:13:13.292Z,38.63
2018-02-08T00:15:41.819Z,37.22
2018-02-08T00:18:11.162Z,40.60
2018-02-08T00:20:43.121Z,39.50
2018-02-08T00:23:11.474Z,37.95
2018-02-08T00:25:43.479Z,35.13
2018-02-08T00:28:11.774Z,34.90
2018-02-08T00:30:41.143Z,38.00
2018-02-08T00:33:10.275Z,36.22
2018-02-08T00:35:46.087Z,34.70
2018-02-08T00:38:15.150Z,35.50
2018-02-08T00:40:43.486Z,35.28
2018-02-08T00:43:11.892Z,37.97
2018-02-08T00:45:40.660Z,32.58
2018-02-08T00:48:09.286Z,37.45
2018-02-08T00:50:38.954Z,34.20
2018-02-08T00:53:10.024Z,36.65
2018-02-08T00:55:38.500Z,32.85
2018-02-08T00:58:08.239Z,36.28
2018-02-08T01:00:42.644Z,37.13
2018-02-08T01:03:11.264Z,38.28
2018-02-08T01:05:39.689Z,36.15
2018-02-08T01:08:08.244Z,38.03
2018-02-08T01:10:37.221Z,38.17
2018-02-08T01:13:07.386Z,38.78
2018-02-08T01:15:36.571Z,40.60
2018-02-08T01:18:06.634Z,38.40
2018-02-08T01:20:35.462Z,35.08
2018-02-08T01:23:05.410Z,39.00
2018-02-08T01:25:37.114Z,36.42
2018-02-08T01:28:06.600Z,33.80
2018-02-08T01:30:35.209Z,36.90
2018-02-08T01:33:04.523Z,39.13
2018-02-08T01:35:33.653Z,35.67
2018-02-08T01:38:02.695Z,35.08
2018-02-08T01:40:31.056Z,36.30
2018-02-08T01:42:59.544Z,36.63
2018-02-08T01:45:31.518Z,38.00
2018-02-08T01:47:59.842Z,34.20
2018-02-08T01:50:28.342Z,36.90
2018-02-08T01:52:56.732Z,38.33
2018-02-08T01:55:25.667Z,33.03
2018-02-08T01:57:58.731Z,39.60
2018-02-08T02:00:27.136Z,40.15
2018-02-08T02:02:56.556Z,37.97
2018-02-08T02:05:26.272Z,38.05
2018-02-08T02:07:54.758Z,34.83
2018-02-08T02:10:23.207Z,34.05
2018-02-08T02:12:51.506Z,37.38
2018-02-08T02:15:19.841Z,37.63
2018-02-08T02:17:51.421Z,35.58
2018-02-08T02:20:19.778Z,37.20
2018-02-08T02:22:48.079Z,36.38
2018-02-08T02:25:16.408Z,38.42
2018-02-08T02:27:45.006Z,42.47
2018-02-08T02:30:15.357Z,36.97
2018-02-08T02:32:43.659Z,37.85
2018-02-08T02:35:13.990Z,33.63
2018-02-08T02:37:44.014Z,34.88
2018-02-08T02:40:13.871Z,38.33
2018-02-08T02:42:43.689Z,35.85
2018-02-08T02:45:13.510Z,38.63
2018-02-08T02:47:43.366Z,34.30
2018-02-08T02:50:13.186Z,36.50
2018-02-08T02:52:43.043Z,33.42
2018-02-08T02:55:12.862Z,36.10
2018-02-08T02:57:42.718Z,35.88
2018-02-08T03:00:12.541Z,37.22
2018-02-08T03:02:42.396Z,31.95
2018-02-08T03:05:12.250Z,34.08
2018-02-08T03:07:42.418Z,37.47
2018-02-08T03:10:12.238Z,35.80
2018-02-08T03:12:42.099Z,35.13
2018-02-08T03:15:11.923Z,34.80
2018-02-08T03:17:41.769Z,35.33
2018-02-08T03:20:11.626Z,36.15
2018-02-08T03:22:41.674Z,34.88
2018-02-08T03:25:11.498Z,35.60
2018-02-08T03:27:41.437Z,37.22
2018-02-08T03:30:11.271Z,37.20
2018-02-08T03:32:41.202Z,37.65
2018-02-08T03:35:11.026Z,37.42
2018-02-08T03:37:40.882Z,37.08
2018-02-08T03:40:10.931Z,32.50
2018-02-08T03:42:40.745Z,37.72
2018-02-08T03:45:10.704Z,37.22
2018-02-08T03:47:40.558Z,34.95
2018-02-08T03:50:10.406Z,36.40
2018-02-08T03:52:40.268Z,35.30
2018-02-08T03:55:10.098Z,36.42
2018-02-08T03:57:40.112Z,36.95
2018-02-08T04:00:09.949Z,35.15
2018-02-08T04:02:40.114Z,36.35
2018-02-08T04:05:10.512Z,34.63
2018-02-08T04:07:40.474Z,36.97
2018-02-08T04:10:11.191Z,34.47
2018-02-08T04:12:41.388Z,38.50
2018-02-08T04:15:12.732Z,40.42
2018-02-08T04:17:42.566Z,37.25
2018-02-08T04:20:12.391Z,39.08
2018-02-08T04:22:42.259Z,35.08
2018-02-08T04:25:12.201Z,38.00
2018-02-08T04:27:42.054Z,35.03
2018-02-08T04:30:11.902Z,33.67
2018-02-08T04:32:41.909Z,35.67
2018-02-08T04:35:11.792Z,35.70
2018-02-08T04:37:41.894Z,35.50
2018-02-08T04:40:17.670Z,35.75
2018-02-08T04:42:53.755Z,36.50
2018-02-08T04:45:29.531Z,34.20
2018-02-08T04:48:05.932Z,35.67
2018-02-08T04:50:37.024Z,40.47
2018-02-08T04:53:07.448Z,35.25
2018-02-08T04:55:37.798Z,41.37
2018-02-08T04:58:07.842Z,34.22
2018-02-08T05:00:37.807Z,36.08
2018-02-08T05:03:07.793Z,38.17
2018-02-08T05:05:38.081Z,38.20
2018-02-08T05:08:08.158Z,43.15
2018-02-08T05:10:38.518Z,39.40
2018-02-08T05:13:08.408Z,38.50
2018-02-08T05:15:38.816Z,34.78
2018-02-08T05:18:09.246Z,34.28
2018-02-08T05:20:39.908Z,35.25
2018-02-08T05:23:11.579Z,39.65
2018-02-08T05:25:41.584Z,36.63
2018-02-08T05:28:12.150Z,37.75
2018-02-08T05:30:42.548Z,34.45
2018-02-08T05:33:13.174Z,37.65
2018-02-08T05:35:44.831Z,37.58
2018-02-08T05:38:14.715Z,36.30
2018-02-08T05:40:44.534Z,38.90
2018-02-08T05:43:14.856Z,36.00
2018-02-08T05:45:44.666Z,36.00
2018-02-08T05:48:14.871Z,36.47
2018-02-08T05:50:44.801Z,37.22
2018-02-08T05:53:15.244Z,40.83
2018-02-08T05:55:45.094Z,42.05
2018-02-08T05:58:14.938Z,38.67
2018-02-08T06:00:44.789Z,37.97
2018-02-08T06:03:15.430Z,38.58
2018-02-08T06:05:45.241Z,38.00
2018-02-08T06:08:15.093Z,39.00
2018-02-08T06:10:45.377Z,40.28
2018-02-08T06:13:15.244Z,39.78
2018-02-08T06:15:45.070Z,35.97
2018-02-08T06:18:15.070Z,37.30
2018-02-08T06:20:45.227Z,36.00
2018-02-08T06:23:15.086Z,40.72
2018-02-08T06:25:44.934Z,35.97
2018-02-08T06:28:14.765Z,37.30
2018-02-08T06:30:44.822Z,39.53
2018-02-08T06:33:15.840Z,34.53
2018-02-08T06:35:45.855Z,35.33
2018-02-08T06:38:15.727Z,37.20
2018-02-08T06:40:45.570Z,40.20
2018-02-08T06:43:15.494Z,41.05
2018-02-08T06:45:45.398Z,35.25
2018-02-08T06:48:15.237Z,36.25
2018-02-08T06:50:45.369Z,37.78
2018-02-08T06:53:15.214Z,41.85
2018-02-08T06:55:45.074Z,39.08
2018-02-08T06:58:15.013Z,38.40
2018-02-08T07:00:45.421Z,39.70
2018-02-08T07:03:15.274Z,40.50
2018-02-08T07:05:45.102Z,44.50
2018-02-08T07:08:14.959Z,41.70
2018-02-08T07:10:44.787Z,40.80
2018-02-08T07:13:14.838Z,38.50
2018-02-08T07:15:44.685Z,41.33
2018-02-08T07:18:14.542Z,40.60
2018-02-08T07:20:44.879Z,41.15
2018-02-08T07:23:15.475Z,39.78
2018-02-08T07:25:45.300Z,45.60
2018-02-08T07:28:15.238Z,40.60
2018-02-08T07:30:45.410Z,39.70
2018-02-08T07:33:15.733Z,39.97
2018-02-08T07:35:45.562Z,43.00
2018-02-08T07:38:15.482Z,40.15
2018-02-08T07:40:45.377Z,41.03
2018-02-08T07:43:15.246Z,37.85
2018-02-08T07:45:45.689Z,39.88
2018-02-08T07:48:15.553Z,43.53
2018-02-08T07:50:45.467Z,41.05
2018-02-08T07:53:15.286Z,39.03
2018-02-08T07:55:45.692Z,42.65
2018-02-08T07:58:15.553Z,41.60
2018-02-08T08:00:45.486Z,44.55
2018-02-08T08:03:15.425Z,44.67
2018-02-08T08:05:45.285Z,48.85
2018-02-08T08:08:15.153Z,47.17
2018-02-08T08:10:45.251Z,49.95
2018-02-08T08:13:15.372Z,48.58
2018-02-08T08:15:45.217Z,47.47
2018-02-08T08:18:15.170Z,45.63
2018-02-08T08:20:45.019Z,48.05
2018-02-08T08:23:14.874Z,39.60
2018-02-08T08:25:44.725Z,43.80
2018-02-08T08:28:15.654Z,46.40
2018-02-08T08:30:45.625Z,43.85
2018-02-08T08:33:15.544Z,41.13
2018-02-08T08:35:45.439Z,43.38
2018-02-08T08:38:15.738Z,38.78
2018-02-08T08:40:45.613Z,41.95
2018-02-08T08:43:15.461Z,40.42
2018-02-08T08:45:45.334Z,42.45
2018-02-08T08:48:15.338Z,39.58
2018-02-08T08:50:45.263Z,42.05
2018-02-08T08:53:15.216Z,46.58
2018-02-08T08:55:45.735Z,37.70
2018-02-08T08:58:15.964Z,39.80
2018-02-08T09:00:45.889Z,39.42
2018-02-08T09:03:15.713Z,43.33
2018-02-08T09:05:45.573Z,42.35
2018-02-08T09:08:15.519Z,41.85
2018-02-08T09:10:45.436Z,39.55
2018-02-08T09:13:15.314Z,38.13
2018-02-08T09:15:45.238Z,41.37
2018-02-08T09:18:15.399Z,40.22
2018-02-08T09:20:45.257Z,40.53
2018-02-08T09:23:15.330Z,52.40
2018-02-08T09:25:45.154Z,42.47
2018-02-08T09:28:15.190Z,37.88
2018-02-08T09:30:45.283Z,41.97
2018-02-08T09:33:15.117Z,38.83
2018-02-08T09:35:44.966Z,34.78
2018-02-08T09:38:14.853Z,37.83
2018-02-08T09:40:44.670Z,37.90
2018-02-08T09:43:14.533Z,35.75
2018-02-08T09:45:44.349Z,32.65
2018-02-08T09:48:14.209Z,32.70
2018-02-08T09:50:44.067Z,37.85
2018-02-08T09:53:13.918Z,32.05
2018-02-08T09:55:43.775Z,32.78
2018-02-08T09:58:13.642Z,32.88
2018-02-08T10:00:43.466Z,32.15
2018-02-08T10:03:13.390Z,32.33
2018-02-08T10:05:43.358Z,32.75
2018-02-08T10:08:13.191Z,34.13
2018-02-08T10:10:43.117Z,34.58
2018-02-08T10:13:12.946Z,29.80
2018-02-08T10:15:42.825Z,30.00
2018-02-08T10:18:13.005Z,29.77
2018-02-08T10:20:43.065Z,28.15
2018-02-08T10:23:14.157Z,29.42
2018-02-08T10:25:44.241Z,25.05
2018-02-08T10:28:14.658Z,25.58
2018-02-08T10:30:44.781Z,29.63
2018-02-08T10:33:14.998Z,28.90
2018-02-08T10:35:45.570Z,30.35
2018-02-08T10:38:15.423Z,31.77
2018-02-08T10:40:45.450Z,29.65
2018-02-08T10:43:15.727Z,29.58
2018-02-08T10:45:45.586Z,32.13
2018-02-08T10:48:15.446Z,33.05
2018-02-08T10:50:45.330Z,35.47
2018-02-08T10:53:15.298Z,29.45
2018-02-08T10:55:45.505Z,32.83
2018-02-08T10:58:15.507Z,31.30
2018-02-08T11:00:45.694Z,29.45
2018-02-08T11:03:15.778Z,36.58
2018-02-08T11:05:46.254Z,31.85
2018-02-08T11:08:16.129Z,32.75
2018-02-08T11:10:45.998Z,35.33
2018-02-08T11:13:15.861Z,34.00
2018-02-08T11:15:45.717Z,26.85
2018-02-08T11:18:15.578Z,27.42
2018-02-08T11:20:45.597Z,23.95
2018-02-08T11:23:15.426Z,22.33
2018-02-08T11:25:45.465Z,23.17
2018-02-08T11:28:15.324Z,21.95
2018-02-08T11:30:45.178Z,21.80
2018-02-08T11:33:15.301Z,18.40
2018-02-08T11:35:45.130Z,20.90
2018-02-08T11:38:15.008Z,21.10
2018-02-08T11:40:44.838Z,20.70
2018-02-08T11:43:15.735Z,20.40
2018-02-08T11:45:45.566Z,20.00
2018-02-08T11:48:14.024Z,20.47
2018-02-08T11:50:46.003Z,21.15
2018-02-08T11:53:14.600Z,24.27
2018-02-08T11:55:43.330Z,20.10
2018-02-08T11:58:15.963Z,18.13
2018-02-08T12:00:44.350Z,19.83
2018-02-08T12:03:13.074Z,18.87
2018-02-08T12:05:42.279Z,17.55
2018-02-08T12:08:12.215Z,18.35
2018-02-08T12:10:42.459Z,19.10
2018-02-08T12:13:12.810Z,20.15
2018-02-08T12:15:42.862Z,18.25
2018-02-08T12:18:11.663Z,19.52
2018-02-08T12:20:41.540Z,22.00
2018-02-08T12:23:11.226Z,20.93
2018-02-08T12:25:45.040Z,24.17
2018-02-08T12:28:13.900Z,22.13
2018-02-08T12:30:45.859Z,20.27
2018-02-08T12:33:14.455Z,22.30
2018-02-08T12:35:45.635Z,20.75
2018-02-08T12:38:14.657Z,24.05
2018-02-08T12:40:43.967Z,19.08
2018-02-08T12:43:12.708Z,22.52
2018-02-08T12:45:45.027Z,21.73
2018-02-08T12:48:14.690Z,21.70
2018-02-08T12:50:44.449Z,20.42
2018-02-08T12:53:14.124Z,22.27
2018-02-08T12:55:43.713Z,19.50
2018-02-08T12:58:13.230Z,21.08
2018-02-08T13:00:42.643Z,21.17
2018-02-08T13:03:11.852Z,21.92
2018-02-08T13:05:41.143Z,19.95
2018-02-08T13:08:13.238Z,19.87
2018-02-08T13:10:42.289Z,21.20
2018-02-08T13:13:14.975Z,20.67
2018-02-08T13:15:43.986Z,21.08
2018-02-08T13:18:12.953Z,19.73
2018-02-08T13:20:45.522Z,20.98
2018-02-08T13:23:14.772Z,18.50
2018-02-08T13:25:43.946Z,18.70
2018-02-08T13:28:17.550Z,20.33
2018-02-08T13:30:46.032Z,20.88
2018-02-08T13:33:15.226Z,21.45
2018-02-08T13:35:44.606Z,21.20
2018-02-08T13:38:13.856Z,20.37
2018-02-08T13:40:47.407Z,20.07
2018-02-08T13:43:15.889Z,15.82
2018-02-08T13:45:44.486Z,16.77
2018-02-08T13:48:29.932Z,20.27
2018-02-08T13:51:08.296Z,19.87
2018-02-08T13:53:53.524Z,18.67
2018-02-08T13:56:32.191Z,17.58
2018-02-08T13:59:08.719Z,18.77
2018-02-08T14:01:40.182Z,17.10
2018-02-08T14:04:10.286Z,17.80
2018-02-08T14:06:39.643Z,19.75
2018-02-08T14:09:09.402Z,18.23
2018-02-08T14:11:40.286Z,18.02
2018-02-08T14:14:14.184Z,18.12
2018-02-08T14:16:42.968Z,16.92
2018-02-08T14:19:12.795Z,17.35
2018-02-08T14:21:41.702Z,18.55
2018-02-08T14:24:10.872Z,18.45
2018-02-08T14:26:39.792Z,18.80
2018-02-08T14:29:09.007Z,18.77
2018-02-08T14:31:41.358Z,19.83
2018-02-08T14:34:11.232Z,17.00
2018-02-08T14:36:40.251Z,17.83
2018-02-08T14:39:09.999Z,19.65
2018-02-08T14:41:41.065Z,18.67
2018-02-08T14:44:11.474Z,18.90
2018-02-08T14:46:40.952Z,14.90
2018-02-08T14:49:10.948Z,13.43
2018-02-08T14:51:41.017Z,16.83
2018-02-08T14:54:10.279Z,16.23
2018-02-08T14:56:42.334Z,15.50
2018-02-08T14:59:11.237Z,19.10
2018-02-08T15:01:41.256Z,20.42
2018-02-08T15:04:11.013Z,21.30
2018-02-08T15:06:41.614Z,22.20
2018-02-08T15:09:11.313Z,21.73
2018-02-08T15:11:40.129Z,21.12
2018-02-08T15:14:10.066Z,19.50
2018-02-08T15:16:39.023Z,21.17
2018-02-08T15:19:09.810Z,20.67
2018-02-08T15:21:40.854Z,21.35
2018-02-08T15:24:19.662Z,20.17
2018-02-08T15:26:49.428Z,22.17
2018-02-08T15:29:18.998Z,21.83
2018-02-08T15:31:49.319Z,22.25
2018-02-08T15:34:26.239Z,23.75
2018-02-08T15:36:54.938Z,21.37
2018-02-08T15:39:25.034Z,22.50
2018-02-08T15:42:00.771Z,24.08
2018-02-08T15:44:29.113Z,22.40
2018-02-08T15:46:57.411Z,20.50
2018-02-08T15:49:25.959Z,21.62
2018-02-08T15:51:55.178Z,23.45
2018-02-08T15:54:27.896Z,22.10
2018-02-08T15:56:56.958Z,20.98
2018-02-08T15:59:27.551Z,21.42
2018-02-08T16:01:56.147Z,23.00
2018-02-08T16:04:25.110Z,22.83
2018-02-08T16:06:54.194Z,20.15
2018-02-08T16:09:23.517Z,23.50
2018-02-08T16:11:52.804Z,23.27
2018-02-08T16:14:22.658Z,20.45
2018-02-08T16:16:55.602Z,22.48
2018-02-08T16:19:24.934Z,21.40
2018-02-08T16:21:53.525Z,23.45
2018-02-08T16:24:21.862Z,22.92
2018-02-08T16:26:51.633Z,20.95
2018-02-08T16:29:20.108Z,24.08
2018-02-08T16:31:49.371Z,25.45
2018-02-08T16:34:17.802Z,21.17
2018-02-08T16:36:46.211Z,22.52
2018-02-08T16:39:14.955Z,26.95
2018-02-08T16:41:43.717Z,22.27
2018-02-08T16:44:13.044Z,24.20
2018-02-08T16:46:42.330Z,23.90
2018-02-08T16:49:10.878Z,25.30
2018-02-08T16:51:39.390Z,25.98
2018-02-08T16:54:07.718Z,25.20
2018-02-08T16:56:36.912Z,26.40
2018-02-08T16:59:05.502Z,25.17
2018-02-08T17:01:34.148Z,25.77
2018-02-08T17:04:02.936Z,25.52
2018-02-08T17:06:31.547Z,24.23
2018-02-08T17:09:03.916Z,24.98
2018-02-08T17:11:32.355Z,25.65
2018-02-08T17:14:01.545Z,23.60
2018-02-08T17:16:29.937Z,22.58
2018-02-08T17:18:59.736Z,21.70
2018-02-08T17:21:28.112Z,25.45
2018-02-08T17:24:03.265Z,23.25
2018-02-08T17:26:31.595Z,24.40
2018-02-08T17:28:59.932Z,21.25
2018-02-08T17:31:29.031Z,22.92
2018-02-08T17:33:57.372Z,22.58
2018-02-08T17:36:26.450Z,23.98
2018-02-08T17:38:56.242Z,23.10
2018-02-08T17:41:25.309Z,24.42
2018-02-08T17:44:00.864Z,24.00
2018-02-08T17:46:30.113Z,24.42
2018-02-08T17:48:58.414Z,21.35
2018-02-08T17:51:26.890Z,24.42
2018-02-08T17:53:57.942Z,25.67
2018-02-08T17:56:27.524Z,23.20
2018-02-08T17:58:55.938Z,23.80
2018-02-08T18:01:25.199Z,26.80
2018-02-08T18:03:54.051Z,22.15
2018-02-08T18:06:22.826Z,23.50
2018-02-08T18:08:53.284Z,22.70
2018-02-08T18:11:22.320Z,21.87
2018-02-08T18:13:53.267Z,24.37
2018-02-08T18:16:22.918Z,23.60
2018-02-08T18:18:55.214Z,22.37
2018-02-08T18:21:27.457Z,20.20
2018-02-08T18:23:56.429Z,23.85
2018-02-08T18:26:25.162Z,23.20
2018-02-08T18:28:54.359Z,24.37
2018-02-08T18:31:25.045Z,21.83
2018-02-08T18:33:55.178Z,24.65
2018-02-08T18:36:24.703Z,21.80
2018-02-08T18:38:54.275Z,22.05
2018-02-08T18:41:23.082Z,22.67
2018-02-08T18:43:52.085Z,22.40
2018-02-08T18:46:21.152Z,22.75
2018-02-08T18:48:49.598Z,23.27
2018-02-08T18:51:17.967Z,21.83
2018-02-08T18:53:46.530Z,20.50
2018-02-08T18:56:21.781Z,21.48
2018-02-08T18:58:51.020Z,21.25
2018-02-08T19:01:19.379Z,23.48
2018-02-08T19:03:47.928Z,24.67
2018-02-08T19:06:16.767Z,24.20
2018-02-08T19:08:45.278Z,25.60
2018-02-08T19:11:14.559Z,26.33
2018-02-08T19:13:43.030Z,27.62
2018-02-08T19:16:11.674Z,26.40
2018-02-08T19:18:39.983Z,25.45
2018-02-08T19:21:09.018Z,30.15
2018-02-08T19:23:37.390Z,27.23
2018-02-08T19:26:05.958Z,24.58
2018-02-08T19:28:35.371Z,27.05
2018-02-08T19:31:03.903Z,27.55
2018-02-08T19:33:33.095Z,24.73
2018-02-08T19:36:02.586Z,26.05
2018-02-08T19:38:30.957Z,25.42
2018-02-08T19:41:00.130Z,25.90
2018-02-08T19:43:28.837Z,24.40
2018-02-08T19:45:57.170Z,24.65
2018-02-08T19:48:25.506Z,23.73
2018-02-08T19:50:54.906Z,22.37
2018-02-08T19:53:23.203Z,24.60
2018-02-08T19:55:51.498Z,24.73
2018-02-08T19:58:19.972Z,22.52
2018-02-08T20:00:50.172Z,23.80
2018-02-08T20:03:18.640Z,20.77
2018-02-08T20:05:47.135Z,21.45
2018-02-08T20:08:15.718Z,24.75
2018-02-08T20:10:44.820Z,26.90
2018-02-08T20:13:13.298Z,24.90
2018-02-08T20:15:41.631Z,25.12
2018-02-08T20:18:10.691Z,23.48
2018-02-08T20:20:39.024Z,23.10
2018-02-08T20:23:07.417Z,24.58
2018-02-08T20:25:41.494Z,23.83
2018-02-08T20:28:10.571Z,22.20
2018-02-08T20:30:38.923Z,25.37
2018-02-08T20:33:08.192Z,24.95
2018-02-08T20:35:36.669Z,22.92
2018-02-08T20:38:05.184Z,23.65
2018-02-08T20:40:35.888Z,19.30
2018-02-08T20:43:11.135Z,22.25
2018-02-08T20:45:40.531Z,21.08
2018-02-08T20:48:09.392Z,22.35
2018-02-08T20:50:40.725Z,21.73
2018-02-08T20:53:10.682Z,18.30
2018-02-08T20:55:40.448Z,20.98
2018-02-08T20:58:10.010Z,18.87
2018-02-08T21:00:39.367Z,22.77
2018-02-08T21:03:08.975Z,19.50
2018-02-08T21:05:38.378Z,22.62
2018-02-08T21:08:11.206Z,20.60
2018-02-08T21:10:40.242Z,20.98
2018-02-08T21:13:08.847Z,20.05
2018-02-08T21:15:37.682Z,20.10
2018-02-08T21:18:07.006Z,19.35
2018-02-08T21:20:36.479Z,18.90
2018-02-08T21:23:07.630Z,18.15
2018-02-08T21:25:37.106Z,20.25
2018-02-08T21:28:06.147Z,19.42
2018-02-08T21:30:35.883Z,21.67
2018-02-08T21:33:06.846Z,21.10
2018-02-08T21:35:35.842Z,21.85
2018-02-08T21:38:05.821Z,20.88
2018-02-08T21:40:35.374Z,18.35
2018-02-08T21:43:07.336Z,20.35
2018-02-08T21:45:36.462Z,19.42
2018-02-08T21:48:05.451Z,17.85
2018-02-08T21:50:35.295Z,20.37
2018-02-08T21:53:04.950Z,20.40
2018-02-08T21:55:33.309Z,20.50
2018-02-08T21:58:01.867Z,20.73
2018-02-08T22:00:30.159Z,19.10
2018-02-08T22:02:58.491Z,20.35
2018-02-08T22:05:26.827Z,22.25
2018-02-08T22:07:55.254Z,22.40
2018-02-08T22:10:23.559Z,22.15
2018-02-08T22:12:51.900Z,23.00
2018-02-08T22:15:20.210Z,22.70
2018-02-08T22:17:50.543Z,20.33
2018-02-08T22:20:18.906Z,21.33
2018-02-08T22:22:47.429Z,20.83
2018-02-08T22:25:15.926Z,19.42
2018-02-08T22:27:44.595Z,20.70
2018-02-08T22:30:13.451Z,21.30
2018-02-08T22:32:42.793Z,22.10
2018-02-08T22:35:11.604Z,18.70
2018-02-08T22:37:40.264Z,22.30
2018-02-08T22:40:11.325Z,18.55
2018-02-08T22:42:40.297Z,20.80
2018-02-08T22:45:08.978Z,21.60
2018-02-08T22:47:37.505Z,19.65
2018-02-08T22:50:05.858Z,20.58
2018-02-08T22:52:34.974Z,19.73
2018-02-08T22:55:03.360Z,21.33
2018-02-08T22:57:31.883Z,20.67
2018-02-08T23:00:00.861Z,19.10
2018-02-08T23:02:29.151Z,19.35
2018-02-08T23:04:57.508Z,22.15
2018-02-08T23:07:25.802Z,20.77
2018-02-08T23:09:54.146Z,19.40
2018-02-08T23:12:22.438Z,17.87
2018-02-08T23:14:51.089Z,21.50
2018-02-08T23:17:19.391Z,20.12
2018-02-08T23:19:47.690Z,19.42
2018-02-08T23:22:16.135Z,20.08
2018-02-08T23:24:44.551Z,19.42
2018-02-08T23:27:13.810Z,17.80
2018-02-08T23:29:42.940Z,20.65
2018-02-08T23:32:11.430Z,20.48
2018-02-08T23:34:40.331Z,21.58
2018-02-08T23:37:08.902Z,22.17
2018-02-08T23:39:38.308Z,19.67
2018-02-08T23:42:07.022Z,19.65
2018-02-08T23:44:36.147Z,20.00
2018-02-08T23:47:04.474Z,22.58
2018-02-08T23:49:33.569Z,19.08
2018-02-08T23:52:02.264Z,21.30
2018-02-08T23:54:31.011Z,21.40
2018-02-08T23:56:59.989Z,21.95
2018-02-08T23:59:28.294Z,21.05
